createdAt,value
2022-10-09T00:00:49.968Z,100271.50
2022-10-09T00:03:17.737Z,100273.13
2022-10-09T00:05:45.655Z,100259.00
2022-10-09T00:08:12.742Z,100264.31
2022-10-09T00:10:43.403Z,100266.00
2022-10-09T00:13:10.253Z,100264.16
2022-10-09T00:15:42.468Z,100261.72
2022-10-09T00:18:10.187Z,100259.16
2022-10-09T00:20:42.817Z,100260.19
2022-10-09T00:23:10.796Z,100256.66
2022-10-09T00:26:13.319Z,100264.63
2022-10-09T00:28:40.198Z,100251.59
2022-10-09T00:31:09.318Z,100258.69
2022-10-09T00:33:36.837Z,100257.13
2022-10-09T00:36:16.919Z,100268.75
2022-10-09T00:38:43.771Z,100263.25
2022-10-09T00:41:16.533Z,100263.63
2022-10-09T00:43:57.014Z,100259.50
2022-10-09T00:46:41.546Z,100264.66
2022-10-09T00:49:07.858Z,100254.66
2022-10-09T00:51:35.604Z,100252.16
2022-10-09T00:54:05.441Z,100252.00
2022-10-09T00:56:35.274Z,100256.63
2022-10-09T00:59:03.963Z,100251.31
2022-10-09T01:01:30.667Z,100255.91
2022-10-09T01:03:57.148Z,100251.38
2022-10-09T01:06:46.856Z,100254.03
2022-10-09T01:10:00.106Z,100255.38
2022-10-09T01:12:36.079Z,100257.25
2022-10-09T01:15:24.206Z,100255.72
2022-10-09T01:18:06.957Z,100254.03
2022-10-09T01:20:46.831Z,100252.44
2022-10-09T01:23:36.937Z,100250.75
2022-10-09T01:26:15.933Z,100252.63
2022-10-09T01:28:46.917Z,100242.94
2022-10-09T01:31:15.598Z,100239.50
2022-10-09T01:33:42.689Z,100237.94
2022-10-09T01:36:10.311Z,100237.28
2022-10-09T01:38:40.344Z,100238.25
2022-10-09T01:41:08.196Z,100239.94
2022-10-09T01:43:35.078Z,100240.97
2022-10-09T01:46:18.863Z,100231.13
2022-10-09T01:48:51.400Z,100241.06
2022-10-09T01:51:21.800Z,100233.16
2022-10-09T01:53:51.062Z,100242.16
2022-10-09T01:56:22.177Z,100242.28
2022-10-09T01:58:52.937Z,100230.91
2022-10-09T02:01:32.718Z,100230.09
2022-10-09T02:04:02.334Z,100236.34
2022-10-09T02:06:31.164Z,100230.09
2022-10-09T02:08:58.539Z,100225.59
2022-10-09T02:11:29.477Z,100228.31
2022-10-09T02:13:56.382Z,100229.31
2022-10-09T02:16:37.308Z,100237.41
2022-10-09T02:19:12.036Z,100228.75
2022-10-09T02:21:44.038Z,100235.22
2022-10-09T02:24:17.917Z,100228.28
2022-10-09T02:26:44.417Z,100231.16
2022-10-09T02:29:12.394Z,100235.69
2022-10-09T02:31:41.565Z,100236.63
2022-10-09T02:34:12.463Z,100230.66
2022-10-09T02:36:39.588Z,100238.06
2022-10-09T02:39:07.477Z,100232.75
2022-10-09T02:41:34.760Z,100237.47
2022-10-09T02:44:02.063Z,100232.19
2022-10-09T02:46:28.946Z,100236.63
2022-10-09T02:48:55.391Z,100231.34
2022-10-09T02:51:22.230Z,100225.25
2022-10-09T02:53:48.920Z,100224.59
2022-10-09T02:56:15.294Z,100227.06
2022-10-09T02:58:41.963Z,100224.41
2022-10-09T03:01:08.519Z,100221.91
2022-10-09T03:03:35.044Z,100223.75
2022-10-09T03:06:02.167Z,100230.75
2022-10-09T03:08:28.651Z,100223.59
2022-10-09T03:11:01.063Z,100229.72
2022-10-09T03:13:27.662Z,100222.59
2022-10-09T03:15:54.200Z,100216.72
2022-10-09T03:18:22.817Z,100225.69
2022-10-09T03:20:49.228Z,100222.31
2022-10-09T03:23:15.757Z,100221.53
2022-10-09T03:25:42.681Z,100219.97
2022-10-09T03:28:09.216Z,100215.72
2022-10-09T03:30:35.684Z,100222.88
2022-10-09T03:33:02.352Z,100224.09
2022-10-09T03:35:28.720Z,100217.97
2022-10-09T03:37:56.221Z,100222.25
2022-10-09T03:40:22.611Z,100214.16
2022-10-09T03:42:49.294Z,100216.75
2022-10-09T03:45:15.975Z,100217.44
2022-10-09T03:47:42.511Z,100207.56
2022-10-09T03:50:09.633Z,100207.56
2022-10-09T03:52:36.280Z,100212.94
2022-10-09T03:55:03.069Z,100208.59
2022-10-09T03:57:29.466Z,100204.34
2022-10-09T03:59:55.946Z,100206.22
2022-10-09T04:02:22.404Z,100200.84
2022-10-09T04:04:48.920Z,100202.47
2022-10-09T04:07:15.310Z,100205.28
2022-10-09T04:09:41.762Z,100211.56
2022-10-09T04:12:08.357Z,100202.91
2022-10-09T04:14:34.787Z,100202.25
2022-10-09T04:17:01.172Z,100208.78
2022-10-09T04:19:27.733Z,100200.97
2022-10-09T04:21:54.195Z,100200.31
2022-10-09T04:24:20.717Z,100206.56
2022-10-09T04:26:47.148Z,100205.63
2022-10-09T04:29:13.611Z,100198.81
2022-10-09T04:31:40.119Z,100192.75
2022-10-09T04:34:06.636Z,100198.38
2022-10-09T04:36:33.165Z,100198.38
2022-10-09T04:38:59.591Z,100191.22
2022-10-09T04:41:26.098Z,100190.56
2022-10-09T04:43:56.252Z,100190.38
2022-10-09T04:46:23.815Z,100178.78
2022-10-09T04:48:50.636Z,100183.06
2022-10-09T04:51:18.555Z,100180.94
2022-10-09T04:53:46.755Z,100181.72
2022-10-09T04:56:16.003Z,100185.28
2022-10-09T04:58:42.545Z,100175.50
2022-10-09T05:01:22.641Z,100177.44
2022-10-09T05:06:17.844Z,100170.66
2022-10-09T05:08:44.723Z,100173.50
2022-10-09T05:11:14.503Z,100168.53
2022-10-09T05:13:45.096Z,100167.16
2022-10-09T05:16:18.112Z,100165.72
2022-10-09T05:18:47.072Z,100172.22
2022-10-09T05:21:15.802Z,100172.13
2022-10-09T05:23:42.485Z,100164.53
2022-10-09T05:26:12.584Z,100167.31
2022-10-09T05:28:39.224Z,100165.47
2022-10-09T05:31:07.297Z,100170.63
2022-10-09T05:33:34.264Z,100172.50
2022-10-09T05:36:04.823Z,100175.00
2022-10-09T05:38:33.147Z,100178.69
2022-10-09T05:41:02.180Z,100169.84
2022-10-09T05:43:31.757Z,100167.31
2022-10-09T05:46:09.420Z,100175.38
2022-10-09T05:48:37.732Z,100173.56
2022-10-09T05:51:12.559Z,100182.41
2022-10-09T05:53:40.506Z,100179.72
2022-10-09T05:56:10.786Z,100173.28
2022-10-09T05:58:37.177Z,100171.34
2022-10-09T06:01:03.637Z,100174.88
2022-10-09T06:03:30.167Z,100165.00
2022-10-09T06:06:01.171Z,100166.69
2022-10-09T06:08:28.743Z,100163.84
2022-10-09T06:10:55.122Z,100166.31
2022-10-09T06:13:21.848Z,100163.59
2022-10-09T06:15:54.767Z,100172.31
2022-10-09T06:18:21.791Z,100171.53
2022-10-09T06:20:59.992Z,100172.44
2022-10-09T06:23:27.407Z,100181.47
2022-10-09T06:25:56.123Z,100168.31
2022-10-09T06:28:23.141Z,100180.53
2022-10-09T06:30:50.289Z,100176.19
2022-10-09T06:33:17.144Z,100183.19
2022-10-09T06:35:43.755Z,100181.31
2022-10-09T06:38:10.572Z,100176.66
2022-10-09T06:40:38.067Z,100175.56
2022-10-09T06:43:05.449Z,100169.03
2022-10-09T06:45:37.792Z,100169.97
2022-10-09T06:48:04.539Z,100177.06
2022-10-09T06:50:30.928Z,100173.50
2022-10-09T06:52:57.466Z,100177.69
2022-10-09T06:55:28.517Z,100172.03
2022-10-09T06:57:55.323Z,100177.06
2022-10-09T07:00:21.737Z,100178.56
2022-10-09T07:02:49.823Z,100178.34
2022-10-09T07:05:16.904Z,100185.13
2022-10-09T07:07:43.396Z,100187.66
2022-10-09T07:10:10.262Z,100188.28
2022-10-09T07:12:37.958Z,100176.41
2022-10-09T07:15:06.615Z,100189.19
2022-10-09T07:17:33.099Z,100186.06
2022-10-09T07:19:59.626Z,100195.41
2022-10-09T07:22:27.073Z,100192.47
2022-10-09T07:24:53.813Z,100192.66
2022-10-09T07:27:20.236Z,100191.53
2022-10-09T07:29:46.801Z,100184.06
2022-10-09T07:32:13.173Z,100189.44
2022-10-09T07:34:40.783Z,100189.53
2022-10-09T07:37:07.167Z,100186.19
2022-10-09T07:39:34.894Z,100190.16
2022-10-09T07:42:02.317Z,100181.06
2022-10-09T07:44:29.014Z,100180.13
2022-10-09T07:46:55.441Z,100181.38
2022-10-09T07:49:22.095Z,100177.34
2022-10-09T07:51:48.529Z,100182.00
2022-10-09T07:54:15.102Z,100179.44
2022-10-09T07:56:41.582Z,100185.44
2022-10-09T07:59:12.632Z,100180.94
2022-10-09T08:01:39.991Z,100172.63
2022-10-09T08:04:06.870Z,100174.81
2022-10-09T08:06:34.420Z,100175.13
2022-10-09T08:09:03.624Z,100177.31
2022-10-09T08:11:30.848Z,100176.16
2022-10-09T08:13:58.163Z,100173.59
2022-10-09T08:16:27.157Z,100162.31
2022-10-09T08:18:55.639Z,100165.75
2022-10-09T08:21:22.149Z,100166.34
2022-10-09T08:23:52.621Z,100165.22
2022-10-09T08:26:20.615Z,100168.50
2022-10-09T08:28:59.102Z,100167.03
2022-10-09T08:31:27.489Z,100162.63
2022-10-09T08:33:55.968Z,100161.38
2022-10-09T08:36:23.092Z,100146.44
2022-10-09T08:38:49.730Z,100150.59
2022-10-09T08:41:41.949Z,100145.28
2022-10-09T08:44:19.351Z,100131.63
2022-10-09T08:47:13.307Z,100140.72
2022-10-09T08:50:08.877Z,100120.06
2022-10-09T08:52:50.066Z,100113.25
2022-10-09T08:55:31.441Z,100115.56
2022-10-09T08:58:04.331Z,100099.44
2022-10-09T09:00:36.717Z,100105.19
2022-10-09T09:03:33.991Z,100102.75
2022-10-09T09:06:09.686Z,100090.03
2022-10-09T09:08:39.138Z,100092.00
2022-10-09T09:11:21.764Z,100086.50
2022-10-09T09:14:07.331Z,100088.25
2022-10-09T09:16:58.431Z,100088.09
2022-10-09T09:19:33.980Z,100076.38
2022-10-09T09:22:00.603Z,100079.19
2022-10-09T09:24:36.209Z,100069.19
2022-10-09T09:27:10.283Z,100065.41
2022-10-09T09:29:43.344Z,100061.81
2022-10-09T09:32:17.484Z,100055.28
2022-10-09T09:34:44.554Z,100054.72
2022-10-09T09:37:13.153Z,100054.22
2022-10-09T09:40:34.925Z,100039.53
2022-10-09T09:42:28.164Z,100034.56
2022-10-09T09:45:06.195Z,100026.81
2022-10-09T09:47:55.915Z,100029.97
2022-10-09T09:51:10.144Z,100017.16
2022-10-09T09:53:31.962Z,100021.88
2022-10-09T09:55:58.918Z,100015.69
2022-10-09T09:58:35.412Z,100005.75
2022-10-09T10:01:03.680Z,100001.94
2022-10-09T10:03:31.178Z,99986.06
2022-10-09T10:05:57.721Z,99995.03
2022-10-09T10:08:29.698Z,99982.41
2022-10-09T10:11:17.378Z,99996.16
2022-10-09T10:13:49.278Z,99980.44
2022-10-09T10:16:27.847Z,99984.13
2022-10-09T10:18:57.569Z,99978.13
2022-10-09T10:21:24.637Z,99972.59
2022-10-09T10:23:56.458Z,99981.81
2022-10-09T10:26:30.839Z,99969.19
2022-10-09T10:29:12.355Z,99968.19
2022-10-09T10:31:55.100Z,99954.44
2022-10-09T10:34:27.863Z,99954.25
2022-10-09T10:37:10.270Z,99943.44
2022-10-09T10:40:07.193Z,99940.28
2022-10-09T10:42:47.952Z,99931.44
2022-10-09T10:45:24.611Z,99933.00
2022-10-09T10:47:55.115Z,99931.94
2022-10-09T10:50:25.907Z,99924.84
2022-10-09T10:53:33.769Z,99918.53
2022-10-09T10:56:08.493Z,99916.09
2022-10-09T10:58:59.879Z,99906.19
2022-10-09T11:01:41.378Z,99903.88
2022-10-09T11:04:17.814Z,99909.56
2022-10-09T11:07:14.227Z,99899.16
2022-10-09T11:09:52.115Z,99892.19
2022-10-09T11:12:30.165Z,99893.69
2022-10-09T11:15:19.165Z,99886.19
2022-10-09T11:17:54.330Z,99884.41
2022-10-09T11:20:35.931Z,99878.53
2022-10-09T11:23:44.738Z,99878.53
2022-10-09T11:26:28.826Z,99878.81
2022-10-09T11:29:08.760Z,99872.47
2022-10-09T11:31:52.507Z,99866.72
2022-10-09T11:34:26.624Z,99862.97
2022-10-09T11:36:53.582Z,99860.69
2022-10-09T11:39:23.843Z,99862.41
2022-10-09T11:41:52.656Z,99851.44
2022-10-09T11:44:31.518Z,99848.06
2022-10-09T11:47:23.841Z,99845.53
2022-10-09T11:50:08.260Z,99839.50
2022-10-09T11:53:14.810Z,99837.66
2022-10-09T11:55:42.650Z,99832.78
2022-10-09T11:58:14.852Z,99825.53
2022-10-09T12:00:42.575Z,99830.63
2022-10-09T12:03:24.945Z,99826.72
2022-10-09T12:06:01.623Z,99818.09
2022-10-09T12:08:28.294Z,99820.81
2022-10-09T12:10:59.256Z,99812.34
2022-10-09T12:13:36.938Z,99808.19
2022-10-09T12:16:03.920Z,99797.38
2022-10-09T12:18:36.303Z,99791.78
2022-10-09T12:21:16.991Z,99795.00
2022-10-09T12:23:46.714Z,99787.75
2022-10-09T12:26:15.206Z,99770.88
2022-10-09T12:28:48.447Z,99777.13
2022-10-09T12:31:38.398Z,99768.69
2022-10-09T12:34:32.349Z,99775.09
2022-10-09T12:37:14.222Z,99759.88
2022-10-09T12:39:41.484Z,99765.63
2022-10-09T12:42:18.479Z,99761.38
2022-10-09T12:44:47.942Z,99754.16
2022-10-09T12:47:20.631Z,99753.28
2022-10-09T12:49:58.469Z,99753.28
2022-10-09T12:52:25.374Z,99749.72
2022-10-09T12:54:51.931Z,99737.59
2022-10-09T12:57:21.755Z,99737.75
2022-10-09T12:59:51.353Z,99738.97
2022-10-09T13:02:19.927Z,99734.88
2022-10-09T13:04:59.576Z,99723.72
2022-10-09T13:07:28.826Z,99727.59
2022-10-09T13:10:00.381Z,99728.09
2022-10-09T13:12:28.883Z,99725.06
2022-10-09T13:15:19.908Z,99715.09
2022-10-09T13:17:46.807Z,99716.59
2022-10-09T13:20:16.512Z,99710.19
2022-10-09T13:23:25.871Z,99706.44
2022-10-09T13:25:52.376Z,99698.66
2022-10-09T13:28:20.642Z,99699.69
2022-10-09T13:30:48.391Z,99691.19
2022-10-09T13:33:16.384Z,99692.22
2022-10-09T13:35:43.226Z,99686.81
2022-10-09T13:38:15.649Z,99677.00
2022-10-09T13:40:42.753Z,99672.91
2022-10-09T13:43:18.721Z,99667.81
2022-10-09T13:45:45.435Z,99667.47
2022-10-09T13:48:12.985Z,99658.09
2022-10-09T13:50:39.404Z,99657.63
2022-10-09T13:53:09.202Z,99661.00
2022-10-09T13:55:35.961Z,99655.56
2022-10-09T13:58:02.887Z,99644.56
2022-10-09T14:00:29.538Z,99647.44
2022-10-09T14:02:56.366Z,99646.59
2022-10-09T14:05:23.639Z,99641.66
2022-10-09T14:07:50.299Z,99641.72
2022-10-09T14:10:21.714Z,99626.09
2022-10-09T14:12:53.020Z,99621.38
2022-10-09T14:15:19.604Z,99614.41
2022-10-09T14:17:46.323Z,99622.03
2022-10-09T14:20:19.964Z,99617.97
2022-10-09T14:22:46.505Z,99617.84
2022-10-09T14:25:22.517Z,99606.69
2022-10-09T14:27:48.900Z,99607.19
2022-10-09T14:30:17.666Z,99598.69
2022-10-09T14:32:44.220Z,99599.53
2022-10-09T14:35:10.872Z,99597.66
2022-10-09T14:37:41.496Z,99588.03
2022-10-09T14:40:10.211Z,99597.00
2022-10-09T14:42:37.814Z,99589.22
2022-10-09T14:45:05.625Z,99590.94
2022-10-09T14:47:32.182Z,99580.47
2022-10-09T14:49:58.652Z,99566.44
2022-10-09T14:52:25.338Z,99573.22
2022-10-09T14:54:51.809Z,99568.31
2022-10-09T14:57:18.263Z,99567.84
2022-10-09T14:59:44.825Z,99558.03
2022-10-09T15:02:15.517Z,99559.91
2022-10-09T15:04:42.125Z,99555.19
2022-10-09T15:07:08.739Z,99552.50
2022-10-09T15:09:35.222Z,99559.91
2022-10-09T15:12:01.591Z,99548.06
2022-10-09T15:14:28.108Z,99554.34
2022-10-09T15:16:54.507Z,99546.75
2022-10-09T15:19:20.985Z,99543.56
2022-10-09T15:21:47.373Z,99529.84
2022-10-09T15:24:13.835Z,99536.25
2022-10-09T15:26:41.565Z,99526.81
2022-10-09T15:29:08.730Z,99518.38
2022-10-09T15:31:38.185Z,99521.25
2022-10-09T15:34:06.117Z,99517.53
2022-10-09T15:36:35.382Z,99517.38
2022-10-09T15:39:05.736Z,99515.19
2022-10-09T15:41:34.747Z,99516.22
2022-10-09T15:44:04.133Z,99516.22
2022-10-09T15:46:30.868Z,99507.78
2022-10-09T15:48:57.546Z,99509.66
2022-10-09T15:51:24.639Z,99503.22
2022-10-09T15:53:52.601Z,99491.38
2022-10-09T15:56:24.313Z,99484.97
2022-10-09T15:58:51.888Z,99495.63
2022-10-09T16:01:19.064Z,99490.38
2022-10-09T16:03:45.877Z,99481.25
2022-10-09T16:06:14.597Z,99477.72
2022-10-09T16:08:42.004Z,99475.47
2022-10-09T16:11:10.672Z,99470.03
2022-10-09T16:13:39.763Z,99484.53
2022-10-09T16:16:09.783Z,99479.06
2022-10-09T16:18:36.987Z,99476.47
2022-10-09T16:21:13.887Z,99477.59
2022-10-09T16:23:41.333Z,99481.81
2022-10-09T16:26:08.828Z,99479.25
2022-10-09T16:28:35.673Z,99485.84
2022-10-09T16:31:02.272Z,99487.66
2022-10-09T16:33:29.140Z,99490.66
2022-10-09T16:36:07.358Z,99489.84
2022-10-09T16:38:33.803Z,99493.66
2022-10-09T16:41:02.569Z,99492.72
2022-10-09T16:43:33.410Z,99501.56
2022-10-09T16:46:11.424Z,99505.03
2022-10-09T16:48:38.029Z,99503.13
2022-10-09T16:51:10.004Z,99509.94
2022-10-09T16:53:36.713Z,99501.47
2022-10-09T16:56:12.466Z,99505.44
2022-10-09T16:58:39.777Z,99511.94
2022-10-09T17:01:09.936Z,99515.03
2022-10-09T17:03:40.390Z,99510.22
2022-10-09T17:06:12.002Z,99507.66
2022-10-09T17:08:39.068Z,99516.50
2022-10-09T17:11:10.183Z,99511.53
2022-10-09T17:13:37.030Z,99515.06
2022-10-09T17:16:09.115Z,99520.81
2022-10-09T17:18:36.449Z,99513.69
2022-10-09T17:21:04.703Z,99519.31
2022-10-09T17:23:31.513Z,99521.81
2022-10-09T17:25:58.321Z,99515.75
2022-10-09T17:28:25.281Z,99513.31
2022-10-09T17:30:52.045Z,99517.34
2022-10-09T17:33:19.918Z,99510.34
2022-10-09T17:35:46.889Z,99511.16
2022-10-09T17:38:13.417Z,99511.81
2022-10-09T17:40:40.212Z,99511.66
2022-10-09T17:43:08.645Z,99523.91
2022-10-09T17:45:42.278Z,99514.44
2022-10-09T17:48:09.580Z,99512.59
2022-10-09T17:50:36.920Z,99519.34
2022-10-09T17:53:04.467Z,99518.88
2022-10-09T17:55:31.413Z,99512.06
2022-10-09T17:57:57.905Z,99510.38
2022-10-09T18:00:24.347Z,99512.59
2022-10-09T18:02:50.842Z,99508.34
2022-10-09T18:05:18.385Z,99505.06
2022-10-09T18:07:44.839Z,99502.63
2022-10-09T18:10:11.405Z,99497.53
2022-10-09T18:12:37.768Z,99501.94
2022-10-09T18:15:04.750Z,99501.22
2022-10-09T18:17:33.365Z,99496.94
2022-10-09T18:20:00.194Z,99488.41
2022-10-09T18:22:26.618Z,99491.22
2022-10-09T18:24:53.218Z,99484.16
2022-10-09T18:27:20.264Z,99487.97
2022-10-09T18:29:46.824Z,99476.34
2022-10-09T18:32:13.246Z,99474.53
2022-10-09T18:34:40.713Z,99473.53
2022-10-09T18:37:09.494Z,99464.78
2022-10-09T18:39:36.046Z,99451.16
2022-10-09T18:42:03.926Z,99458.31
2022-10-09T18:44:33.840Z,99457.34
2022-10-09T18:47:00.424Z,99447.81
2022-10-09T18:49:31.601Z,99451.31
2022-10-09T18:51:59.934Z,99450.44
2022-10-09T18:54:28.245Z,99440.94
2022-10-09T18:56:54.810Z,99438.06
2022-10-09T18:59:22.779Z,99440.88
2022-10-09T19:01:49.288Z,99433.50
2022-10-09T19:04:15.990Z,99434.28
2022-10-09T19:06:42.540Z,99430.19
2022-10-09T19:09:08.943Z,99428.47
2022-10-09T19:11:35.500Z,99428.19
2022-10-09T19:14:02.033Z,99429.03
2022-10-09T19:16:30.494Z,99419.19
2022-10-09T19:18:56.986Z,99423.41
2022-10-09T19:21:23.654Z,99415.16
2022-10-09T19:23:51.604Z,99421.03
2022-10-09T19:26:18.902Z,99422.28
2022-10-09T19:28:45.688Z,99420.78
2022-10-09T19:31:14.998Z,99422.16
2022-10-09T19:33:42.644Z,99412.56
2022-10-09T19:36:13.441Z,99415.38
2022-10-09T19:38:40.979Z,99413.28
2022-10-09T19:41:11.035Z,99417.53
2022-10-09T19:43:38.091Z,99410.34
2022-10-09T19:46:08.595Z,99415.16
2022-10-09T19:48:36.643Z,99414.47
2022-10-09T19:51:10.201Z,99401.97
2022-10-09T19:53:36.661Z,99412.81
2022-10-09T19:56:10.237Z,99411.38
2022-10-09T19:58:40.699Z,99414.75
2022-10-09T20:01:08.783Z,99415.75
2022-10-09T20:03:35.291Z,99416.28
2022-10-09T20:06:02.661Z,99406.75
2022-10-09T20:08:29.130Z,99407.41
2022-10-09T20:11:03.117Z,99413.97
2022-10-09T20:13:31.076Z,99412.25
2022-10-09T20:15:59.931Z,99408.28
2022-10-09T20:18:27.316Z,99411.34
2022-10-09T20:20:54.049Z,99407.81
2022-10-09T20:23:20.854Z,99411.06
2022-10-09T20:25:47.459Z,99408.03
2022-10-09T20:28:15.343Z,99406.84
2022-10-09T20:30:42.691Z,99407.44
2022-10-09T20:33:09.563Z,99403.19
2022-10-09T20:35:45.147Z,99400.66
2022-10-09T20:38:11.966Z,99401.84
2022-10-09T20:40:38.340Z,99400.66
2022-10-09T20:43:04.954Z,99398.03
2022-10-09T20:45:31.441Z,99390.13
2022-10-09T20:47:57.974Z,99388.66
2022-10-09T20:50:24.731Z,99382.81
2022-10-09T20:52:51.433Z,99364.53
2022-10-09T20:55:18.055Z,99366.69
2022-10-09T20:57:44.489Z,99362.63
2022-10-09T21:00:11.457Z,99362.97
2022-10-09T21:02:38.120Z,99356.41
2022-10-09T21:05:04.947Z,99353.19
2022-10-09T21:07:31.749Z,99353.41
2022-10-09T21:09:58.274Z,99348.75
2022-10-09T21:12:24.636Z,99353.28
2022-10-09T21:14:51.094Z,99349.00
2022-10-09T21:17:17.520Z,99352.38
2022-10-09T21:19:44.179Z,99361.94
2022-10-09T21:22:10.627Z,99352.06
2022-10-09T21:24:37.089Z,99351.38
2022-10-09T21:27:03.689Z,99357.16
2022-10-09T21:29:30.054Z,99346.47
2022-10-09T21:31:56.707Z,99349.06
2022-10-09T21:34:23.116Z,99347.22
2022-10-09T21:37:19.761Z,99344.84
2022-10-09T21:39:40.027Z,99345.69
2022-10-09T21:42:06.416Z,99346.53
2022-10-09T21:44:32.990Z,99341.72
2022-10-09T21:46:59.501Z,99337.50
2022-10-09T21:49:27.494Z,99331.91
2022-10-09T21:51:54.454Z,99325.13
2022-10-09T21:54:21.536Z,99331.66
2022-10-09T21:56:48.559Z,99320.66
2022-10-09T21:59:15.201Z,99325.13
2022-10-09T22:01:41.729Z,99330.19
2022-10-09T22:04:08.487Z,99331.28
2022-10-09T22:06:35.069Z,99325.00
2022-10-09T22:09:01.504Z,99323.72
2022-10-09T22:11:28.163Z,99322.88
2022-10-09T22:13:57.715Z,99323.06
2022-10-09T22:16:24.139Z,99321.31
2022-10-09T22:18:50.704Z,99317.94
2022-10-09T22:21:18.443Z,99324.66
2022-10-09T22:23:45.227Z,99325.31
2022-10-09T22:26:17.370Z,99322.00
2022-10-09T22:28:45.123Z,99319.13
2022-10-09T22:31:18.125Z,99319.81
2022-10-09T22:33:44.725Z,99313.06
2022-10-09T22:36:16.881Z,99318.66
2022-10-09T22:38:44.424Z,99319.38
2022-10-09T22:41:12.200Z,99310.50
2022-10-09T22:43:40.498Z,99317.63
2022-10-09T22:46:28.787Z,99317.50
2022-10-09T22:48:55.735Z,99316.13
2022-10-09T22:51:23.784Z,99321.16
2022-10-09T22:53:50.431Z,99309.59
2022-10-09T22:56:25.867Z,99303.44
2022-10-09T22:58:53.191Z,99307.06
2022-10-09T23:01:22.117Z,99304.97
2022-10-09T23:03:48.550Z,99300.56
2022-10-09T23:06:17.675Z,99303.69
2022-10-09T23:08:46.781Z,99307.09
2022-10-09T23:11:14.475Z,99297.00
2022-10-09T23:13:41.097Z,99298.03
2022-10-09T23:16:09.981Z,99296.94
2022-10-09T23:18:37.317Z,99295.81
2022-10-09T23:21:10.600Z,99296.94
2022-10-09T23:23:37.375Z,99293.56
2022-10-09T23:26:08.143Z,99285.34
2022-10-09T23:28:35.735Z,99292.16
2022-10-09T23:31:04.382Z,99289.88
2022-10-09T23:33:30.868Z,99287.66
2022-10-09T23:35:58.861Z,99283.09
2022-10-09T23:38:25.478Z,99285.53
2022-10-09T23:40:59.983Z,99286.22
2022-10-09T23:43:28.237Z,99289.63
2022-10-09T23:45:57.100Z,99290.19
2022-10-09T23:48:23.991Z,99286.13
2022-10-09T23:50:51.281Z,99274.97
2022-10-09T23:53:18.412Z,99285.22
2022-10-09T23:55:45.401Z,99271.34
2022-10-09T23:58:17.191Z,99272.75
